createdAt,value
2023-03-28T00:00:46.282Z,975.60
2023-03-28T00:01:46.499Z,975.60
2023-03-28T00:02:46.265Z,975.60
2023-03-28T00:03:46.553Z,975.58
2023-03-28T00:04:46.264Z,975.55
2023-03-28T00:05:46.319Z,975.58
2023-03-28T00:06:46.208Z,975.65
2023-03-28T00:07:46.301Z,975.59
2023-03-28T00:08:46.238Z,975.63
2023-03-28T00:09:46.311Z,975.66
2023-03-28T00:10:46.162Z,975.65
2023-03-28T00:11:46.379Z,975.73
2023-03-28T00:12:46.095Z,975.76
2023-03-28T00:13:46.236Z,975.75
2023-03-28T00:14:46.069Z,975.74
2023-03-28T00:15:46.242Z,975.71
2023-03-28T00:16:46.038Z,975.78
2023-03-28T00:17:46.163Z,975.79
2023-03-28T00:18:46.004Z,975.78
2023-03-28T00:19:46.167Z,975.77
2023-03-28T00:20:46.098Z,975.79
2023-03-28T00:21:46.033Z,975.73
2023-03-28T00:22:46.194Z,975.72
2023-03-28T00:23:45.967Z,975.75
2023-03-28T00:24:46.095Z,975.79
2023-03-28T00:25:45.978Z,975.73
2023-03-28T00:26:46.786Z,975.76
2023-03-28T00:27:45.983Z,975.73
2023-03-28T00:28:46.024Z,975.74
2023-03-28T00:29:45.922Z,975.74
2023-03-28T00:30:46.060Z,975.75
2023-03-28T00:31:46.125Z,975.75
2023-03-28T00:32:45.970Z,975.78
2023-03-28T00:33:45.884Z,975.79
2023-03-28T00:34:46.004Z,975.80
2023-03-28T00:35:45.881Z,975.80
2023-03-28T00:36:45.968Z,975.82
2023-03-28T00:37:45.836Z,975.79
2023-03-28T00:38:45.889Z,975.79
2023-03-28T00:39:45.759Z,975.83
2023-03-28T00:40:45.794Z,975.78
2023-03-28T00:41:45.808Z,975.80
2023-03-28T00:42:45.846Z,975.83
2023-03-28T00:43:52.015Z,975.83
2023-03-28T00:44:47.641Z,975.84
2023-03-28T00:45:48.848Z,975.83
2023-03-28T00:46:45.708Z,975.82
2023-03-28T00:47:45.809Z,975.82
2023-03-28T00:48:45.666Z,975.84
2023-03-28T00:49:45.769Z,975.87
2023-03-28T00:50:45.612Z,975.90
2023-03-28T00:51:45.684Z,975.88
2023-03-28T00:52:45.595Z,975.88
2023-03-28T00:53:45.713Z,975.90
2023-03-28T00:54:45.598Z,975.92
2023-03-28T00:55:45.729Z,975.95
2023-03-28T00:56:45.582Z,975.96
2023-03-28T00:57:45.741Z,975.95
2023-03-28T00:58:45.543Z,975.98
2023-03-28T00:59:45.741Z,975.98
2023-03-28T01:00:45.552Z,975.98
2023-03-28T01:01:45.719Z,975.98
2023-03-28T01:02:45.655Z,975.99
2023-03-28T01:03:45.668Z,975.98
2023-03-28T01:04:45.480Z,976.01
2023-03-28T01:05:45.596Z,976.03
2023-03-28T01:06:45.450Z,976.01
2023-03-28T01:07:45.524Z,976.03
2023-03-28T01:08:45.425Z,976.07
2023-03-28T01:09:45.554Z,976.04
2023-03-28T01:10:45.401Z,975.99
2023-03-28T01:11:45.623Z,976.00
2023-03-28T01:12:45.509Z,976.02
2023-03-28T01:13:45.481Z,975.99
2023-03-28T01:14:46.062Z,975.98
2023-03-28T01:15:45.465Z,976.00
2023-03-28T01:16:45.478Z,975.99
2023-03-28T01:17:45.506Z,975.97
2023-03-28T01:18:45.285Z,975.96
2023-03-28T01:19:45.373Z,975.99
2023-03-28T01:20:45.238Z,976.03
2023-03-28T01:21:45.493Z,976.03
2023-03-28T01:22:57.332Z,976.06
2023-03-28T01:23:45.237Z,976.08
2023-03-28T01:24:45.393Z,976.07
2023-03-28T01:25:45.198Z,976.08
2023-03-28T01:26:45.441Z,976.09
2023-03-28T01:27:45.191Z,976.06
2023-03-28T01:28:45.296Z,976.08
2023-03-28T01:29:45.180Z,976.09
2023-03-28T01:30:45.433Z,976.10
2023-03-28T01:31:45.159Z,976.11
2023-03-28T01:32:45.257Z,976.13
2023-03-28T01:33:45.130Z,976.17
2023-03-28T01:34:45.148Z,976.15
2023-03-28T01:35:45.107Z,976.16
2023-03-28T01:36:45.143Z,976.17
2023-03-28T01:37:45.076Z,976.17
2023-03-28T01:38:45.190Z,976.19
2023-03-28T01:39:45.040Z,976.16
2023-03-28T01:40:45.074Z,976.17
2023-03-28T01:41:44.989Z,976.16
2023-03-28T01:42:45.144Z,976.15
2023-03-28T01:43:44.981Z,976.15
2023-03-28T01:44:45.013Z,976.13
2023-03-28T01:45:44.995Z,976.13
2023-03-28T01:46:45.016Z,976.18
2023-03-28T01:47:45.005Z,976.18
2023-03-28T01:48:45.050Z,976.18
2023-03-28T01:49:44.898Z,976.15
2023-03-28T01:50:44.951Z,976.14
2023-03-28T01:51:44.894Z,976.13
2023-03-28T01:52:44.954Z,976.14
2023-03-28T01:53:45.024Z,976.15
2023-03-28T01:54:44.817Z,976.12
2023-03-28T01:55:44.999Z,976.10
2023-03-28T01:56:44.831Z,976.11
2023-03-28T01:57:45.052Z,976.12
2023-03-28T01:58:45.019Z,976.10
2023-03-28T01:59:44.782Z,976.13
2023-03-28T02:00:44.819Z,976.12
2023-03-28T02:01:44.755Z,976.13
2023-03-28T02:02:44.937Z,976.14
2023-03-28T02:03:44.741Z,976.13
2023-03-28T02:04:44.898Z,976.12
2023-03-28T02:05:44.707Z,976.14
2023-03-28T02:06:44.848Z,976.15
2023-03-28T02:07:44.672Z,976.13
2023-03-28T02:08:44.868Z,976.11
2023-03-28T02:09:44.688Z,976.08
2023-03-28T02:10:44.806Z,976.10
2023-03-28T02:11:44.622Z,976.06
2023-03-28T02:12:44.707Z,976.08
2023-03-28T02:13:44.619Z,976.06
2023-03-28T02:14:44.763Z,976.05
2023-03-28T02:15:44.595Z,976.01
2023-03-28T02:16:44.697Z,975.99
2023-03-28T02:17:44.614Z,975.98
2023-03-28T02:18:44.741Z,976.00
2023-03-28T02:19:44.779Z,976.01
2023-03-28T02:20:44.505Z,976.02
2023-03-28T02:21:44.616Z,976.04
2023-03-28T02:22:44.477Z,976.03
2023-03-28T02:23:44.579Z,976.05
2023-03-28T02:24:44.579Z,976.07
2023-03-28T02:25:44.485Z,976.06
2023-03-28T02:26:44.590Z,976.07
2023-03-28T02:27:44.463Z,976.09
2023-03-28T02:28:44.565Z,976.10
2023-03-28T02:29:44.630Z,976.07
2023-03-28T02:30:44.389Z,976.12
2023-03-28T02:31:44.563Z,976.06
2023-03-28T02:32:44.421Z,976.07
2023-03-28T02:33:44.451Z,976.10
2023-03-28T02:34:44.332Z,976.14
2023-03-28T02:35:44.478Z,976.16
2023-03-28T02:36:44.329Z,976.14
2023-03-28T02:37:44.452Z,976.17
2023-03-28T02:38:44.282Z,976.18
2023-03-28T02:39:44.507Z,976.14
2023-03-28T02:40:44.253Z,976.15
2023-03-28T02:41:44.463Z,976.15
2023-03-28T02:42:44.266Z,976.15
2023-03-28T02:43:44.481Z,976.12
2023-03-28T02:44:44.199Z,976.12
2023-03-28T02:45:44.372Z,976.14
2023-03-28T02:46:44.191Z,976.14
2023-03-28T02:47:44.376Z,976.12
2023-03-28T02:48:44.184Z,976.12
2023-03-28T02:49:50.387Z,976.11
2023-03-28T02:50:44.372Z,976.12
2023-03-28T02:51:44.157Z,976.13
2023-03-28T02:52:44.420Z,976.15
2023-03-28T02:53:44.130Z,976.14
2023-03-28T02:54:44.283Z,976.14
2023-03-28T02:55:44.089Z,976.17
2023-03-28T02:56:44.375Z,976.16
2023-03-28T02:57:44.066Z,976.13
2023-03-28T02:58:44.130Z,976.11
2023-03-28T02:59:44.064Z,976.16
2023-03-28T03:00:44.138Z,976.12
2023-03-28T03:01:44.092Z,976.12
2023-03-28T03:02:44.162Z,976.14
2023-03-28T03:03:44.062Z,976.15
2023-03-28T03:04:44.206Z,976.13
2023-03-28T03:05:43.992Z,976.14
2023-03-28T03:06:44.157Z,976.14
2023-03-28T03:07:43.952Z,976.13
2023-03-28T03:08:44.089Z,976.17
2023-03-28T03:09:45.781Z,976.21
2023-03-28T03:10:44.009Z,976.19
2023-03-28T03:11:43.931Z,976.14
2023-03-28T03:12:44.005Z,976.16
2023-03-28T03:13:43.868Z,976.15
2023-03-28T03:14:43.952Z,976.18
2023-03-28T03:15:43.865Z,976.17
2023-03-28T03:16:44.047Z,976.16
2023-03-28T03:17:43.838Z,976.15
2023-03-28T03:18:43.935Z,976.16
2023-03-28T03:19:43.825Z,976.14
2023-03-28T03:20:43.950Z,976.14
2023-03-28T03:21:43.810Z,976.14
2023-03-28T03:22:43.933Z,976.18
2023-03-28T03:23:43.760Z,976.12
2023-03-28T03:24:43.879Z,976.17
2023-03-28T03:25:43.734Z,976.09
2023-03-28T03:26:43.830Z,976.13
2023-03-28T03:27:43.698Z,976.12
2023-03-28T03:28:43.806Z,976.12
2023-03-28T03:29:43.677Z,976.16
2023-03-28T03:30:43.946Z,976.09
2023-03-28T03:31:43.742Z,976.12
2023-03-28T03:32:43.691Z,976.12
2023-03-28T03:33:43.732Z,976.09
2023-03-28T03:34:43.617Z,976.10
2023-03-28T03:35:43.762Z,976.14
2023-03-28T03:36:43.587Z,976.12
2023-03-28T03:37:43.701Z,976.13
2023-03-28T03:38:43.584Z,976.11
2023-03-28T03:39:43.789Z,976.11
2023-03-28T03:40:43.560Z,976.10
2023-03-28T03:41:43.688Z,976.11
2023-03-28T03:42:43.527Z,976.10
2023-03-28T03:43:45.300Z,976.06
2023-03-28T03:44:43.518Z,976.06
2023-03-28T03:45:43.737Z,976.09
2023-03-28T03:46:43.529Z,976.10
2023-03-28T03:47:43.620Z,976.08
2023-03-28T03:48:49.576Z,976.13
2023-03-28T03:49:43.410Z,976.10
2023-03-28T03:50:43.562Z,976.08
2023-03-28T03:51:43.390Z,976.12
2023-03-28T03:52:43.625Z,976.10
2023-03-28T03:53:43.360Z,976.12
2023-03-28T03:54:43.586Z,976.11
2023-03-28T03:55:43.353Z,976.10
2023-03-28T03:56:43.644Z,976.11
2023-03-28T03:57:43.392Z,976.14
2023-03-28T03:58:43.311Z,976.11
2023-03-28T03:59:43.436Z,976.09
2023-03-28T04:00:43.278Z,976.09
2023-03-28T04:01:43.442Z,976.09
2023-03-28T04:02:43.604Z,976.11
2023-03-28T04:03:43.245Z,976.10
2023-03-28T04:04:43.507Z,976.11
2023-03-28T04:05:43.261Z,976.13
2023-03-28T04:06:43.364Z,976.11
2023-03-28T04:07:43.372Z,976.13
2023-03-28T04:08:43.190Z,976.17
2023-03-28T04:09:43.334Z,976.18
2023-03-28T04:10:43.975Z,976.22
2023-03-28T04:11:43.280Z,976.17
2023-03-28T04:12:43.156Z,976.18
2023-03-28T04:13:43.199Z,976.20
2023-03-28T04:14:43.110Z,976.16
2023-03-28T04:15:43.321Z,976.18
2023-03-28T04:16:43.140Z,976.18
2023-03-28T04:17:43.336Z,976.19
2023-03-28T04:18:43.090Z,976.18
2023-03-28T04:19:43.252Z,976.19
2023-03-28T04:20:43.059Z,976.16
2023-03-28T04:21:43.113Z,976.21
2023-03-28T04:22:45.267Z,976.20
2023-03-28T04:23:43.184Z,976.22
2023-03-28T04:24:43.006Z,976.26
2023-03-28T04:25:43.068Z,976.25
2023-03-28T04:26:42.991Z,976.26
2023-03-28T20:20:24.658Z,972.14
2023-03-28T20:21:25.504Z,972.05
2023-03-28T20:22:25.516Z,972.07
2023-03-28T20:23:25.390Z,972.10
2023-03-28T20:24:25.371Z,972.04
2023-03-28T20:25:25.287Z,972.01
2023-03-28T20:26:25.202Z,972.07
2023-03-28T20:27:25.323Z,972.09
2023-03-28T20:28:25.457Z,972.08
2023-03-28T20:29:25.211Z,972.11
2023-03-28T20:30:25.420Z,972.14
2023-03-28T20:31:25.237Z,972.17
2023-03-28T20:32:25.376Z,972.21
2023-03-28T20:33:25.386Z,972.17
2023-03-28T20:34:30.645Z,972.19
2023-03-28T20:35:25.069Z,972.22
2023-03-28T20:36:25.435Z,972.26
2023-03-28T20:37:25.039Z,972.28
2023-03-28T20:38:25.219Z,972.30
2023-03-28T20:39:25.544Z,972.30
2023-03-28T20:40:25.263Z,972.29
2023-03-28T20:41:25.996Z,972.35
2023-03-28T20:42:26.097Z,972.47
2023-03-28T20:43:25.474Z,972.52
2023-03-28T20:44:25.099Z,972.44
2023-03-28T20:45:25.026Z,972.39
2023-03-28T20:46:25.552Z,972.22
2023-03-28T20:47:26.097Z,972.16
2023-03-28T20:48:26.597Z,972.14
2023-03-28T20:49:25.319Z,972.04
2023-03-28T20:50:25.230Z,971.96
2023-03-28T20:51:24.949Z,971.85
2023-03-28T20:52:25.002Z,971.74
2023-03-28T20:53:24.969Z,971.62
2023-03-28T20:54:26.171Z,971.48
2023-03-28T20:55:25.599Z,971.36
2023-03-28T20:56:25.214Z,971.37
2023-03-28T20:57:24.845Z,971.51
2023-03-28T20:58:24.941Z,971.65
2023-03-28T20:59:24.910Z,971.67
2023-03-28T21:00:25.280Z,971.70
2023-03-28T21:01:25.146Z,971.75
2023-03-28T21:02:24.814Z,971.80
2023-03-28T21:03:24.843Z,971.88
2023-03-28T21:04:24.900Z,971.88
2023-03-28T21:05:24.950Z,971.76
2023-03-28T21:06:25.708Z,971.69
2023-03-28T21:07:24.950Z,971.62
2023-03-28T21:08:25.337Z,971.57
2023-03-28T21:09:25.711Z,971.43
2023-03-28T21:10:25.454Z,971.43
2023-03-28T21:11:24.610Z,971.47
2023-03-28T21:12:24.773Z,971.45
2023-03-28T21:13:24.665Z,971.43
2023-03-28T21:14:24.807Z,971.42
2023-03-28T21:15:24.506Z,971.36
2023-03-28T21:16:24.806Z,971.38
2023-03-28T21:17:24.531Z,971.28
2023-03-28T21:18:24.638Z,971.21
2023-03-28T21:19:24.441Z,971.16
2023-03-28T21:20:24.636Z,971.09
2023-03-28T21:21:24.422Z,971.01
2023-03-28T21:22:24.553Z,970.94
2023-03-28T21:23:24.435Z,970.87
2023-03-28T21:24:24.575Z,970.84
2023-03-28T21:25:24.568Z,971.01
2023-03-28T21:26:24.479Z,971.27
2023-03-28T21:27:24.480Z,971.37
2023-03-28T21:28:24.377Z,971.34
2023-03-28T21:29:26.002Z,971.28
2023-03-28T21:30:24.335Z,971.22
2023-03-28T21:31:24.403Z,971.22
2023-03-28T21:32:24.350Z,971.33
2023-03-28T21:33:24.519Z,971.39
2023-03-28T21:34:24.268Z,971.35
2023-03-28T21:35:24.360Z,971.34
2023-03-28T21:36:24.273Z,971.35
2023-03-28T21:37:24.344Z,971.40
2023-03-28T21:38:24.278Z,971.46
2023-03-28T21:39:24.460Z,971.54
2023-03-28T21:40:24.230Z,971.52
2023-03-28T21:41:24.278Z,971.54
2023-03-28T21:42:24.198Z,971.59
2023-03-28T21:43:24.392Z,971.61
2023-03-28T21:44:24.219Z,971.58
2023-03-28T21:45:24.461Z,971.57
2023-03-28T21:46:24.290Z,971.58
2023-03-28T21:47:25.265Z,971.54
2023-03-28T21:48:24.072Z,971.59
2023-03-28T21:49:24.223Z,971.62
2023-03-28T21:50:24.069Z,971.60
2023-03-28T21:51:24.153Z,971.60
2023-03-28T21:52:24.020Z,971.65
2023-03-28T21:53:24.174Z,971.67
2023-03-28T21:54:24.040Z,971.74
2023-03-28T21:55:24.167Z,971.67
2023-03-28T21:56:24.159Z,971.61
2023-03-28T21:57:24.018Z,971.59
2023-03-28T21:58:24.232Z,971.60
2023-03-28T21:59:23.968Z,971.53
2023-03-28T22:00:24.302Z,971.55
2023-03-28T22:01:24.133Z,971.55
2023-03-28T22:02:23.934Z,971.55
2023-03-28T22:03:24.296Z,971.49
2023-03-28T22:04:23.894Z,971.58
2023-03-28T22:05:29.651Z,971.52
2023-03-28T22:06:24.026Z,971.62
2023-03-28T22:07:23.859Z,971.68
2023-03-28T22:08:23.949Z,971.70
2023-03-28T22:09:23.837Z,971.73
2023-03-28T22:10:23.990Z,971.67
2023-03-28T22:11:23.807Z,971.72
2023-03-28T22:12:23.938Z,971.67
2023-03-28T22:13:24.011Z,971.69
2023-03-28T22:14:23.997Z,971.71
2023-03-28T22:15:23.846Z,971.79
2023-03-28T22:16:24.048Z,971.83
2023-03-28T22:17:23.792Z,971.85
2023-03-28T22:18:23.881Z,971.90
2023-03-28T22:19:23.722Z,971.90
2023-03-28T22:20:23.802Z,972.03
2023-03-28T22:21:23.680Z,972.17
2023-03-28T22:22:23.844Z,972.31
2023-03-28T22:23:23.681Z,972.24
2023-03-28T22:24:23.854Z,972.28
2023-03-28T22:25:23.627Z,972.26
2023-03-28T22:26:23.871Z,972.25
2023-03-28T22:27:23.741Z,972.28
2023-03-28T22:28:23.581Z,972.32
2023-03-28T22:29:23.745Z,972.30
2023-03-28T22:30:23.574Z,972.30
2023-03-28T22:31:23.737Z,972.28
2023-03-28T22:32:23.723Z,972.32
2023-03-28T22:33:23.653Z,972.32
2023-03-28T22:34:23.734Z,972.35
2023-03-28T22:35:23.520Z,972.32
2023-03-28T22:36:23.769Z,972.39
2023-03-28T22:37:23.679Z,972.36
2023-03-28T22:38:23.473Z,972.37
2023-03-28T22:39:23.608Z,972.40
2023-03-28T22:40:23.475Z,972.42
2023-03-28T22:41:23.567Z,972.42
2023-03-28T22:42:23.386Z,972.42
2023-03-28T22:43:25.045Z,972.35
2023-03-28T22:44:23.578Z,972.34
2023-03-28T22:45:23.582Z,972.30
2023-03-28T22:46:23.434Z,972.24
2023-03-28T22:47:23.567Z,972.23
2023-03-28T22:48:23.327Z,972.24
2023-03-28T22:49:23.421Z,972.26
2023-03-28T22:50:23.298Z,972.26
2023-03-28T22:51:23.488Z,972.16
2023-03-28T22:52:23.286Z,972.12
2023-03-28T22:53:23.507Z,972.15
2023-03-28T22:54:23.234Z,972.14
2023-03-28T22:55:23.533Z,972.20
2023-03-28T22:56:23.225Z,972.15
2023-03-28T22:57:23.413Z,972.15
2023-03-28T22:58:23.265Z,972.15
2023-03-28T22:59:23.218Z,972.13
2023-03-28T23:00:23.676Z,972.07
2023-03-28T23:01:23.369Z,972.09
2023-03-28T23:02:23.328Z,972.10
2023-03-28T23:03:23.330Z,972.11
2023-03-28T23:04:23.104Z,972.12
2023-03-28T23:05:23.365Z,972.08
2023-03-28T23:06:23.116Z,972.09
2023-03-28T23:07:23.255Z,972.10
2023-03-28T23:08:23.237Z,972.06
2023-03-28T23:09:24.742Z,972.08
2023-03-28T23:10:23.170Z,972.07
2023-03-28T23:11:23.041Z,972.07
2023-03-28T23:12:23.294Z,972.02
2023-03-28T23:13:23.050Z,972.05
2023-03-28T23:14:23.131Z,971.94
2023-03-28T23:15:23.036Z,971.93
2023-03-28T23:16:23.132Z,971.95
2023-03-28T23:17:22.982Z,971.93
2023-03-28T23:18:23.136Z,971.96
2023-03-28T23:19:22.934Z,972.00
2023-03-28T23:20:23.101Z,972.02
2023-03-28T23:21:22.929Z,972.00
2023-03-28T23:22:23.006Z,971.97
2023-03-28T23:23:22.922Z,971.98
2023-03-28T23:24:23.067Z,971.96
2023-03-28T23:25:22.855Z,971.86
2023-03-28T23:26:23.054Z,971.85
2023-03-28T23:27:22.822Z,971.88
2023-03-28T23:28:23.103Z,971.83
2023-03-28T23:29:22.878Z,971.81
2023-03-28T23:30:22.792Z,971.73
2023-03-28T23:31:22.938Z,971.61
2023-03-28T23:32:22.828Z,971.50
2023-03-28T23:33:23.061Z,971.30
2023-03-28T23:34:22.856Z,971.25
2023-03-28T23:35:22.732Z,971.22
2023-03-28T23:36:22.857Z,971.20
2023-03-28T23:37:22.705Z,971.22
2023-03-28T23:38:22.864Z,971.22
2023-03-28T23:39:22.840Z,971.19
2023-03-28T23:40:22.650Z,971.20
2023-03-28T23:41:22.751Z,971.14
2023-03-28T23:42:22.627Z,971.17
2023-03-28T23:43:22.815Z,971.12
2023-03-28T23:44:22.601Z,971.11
2023-03-28T23:45:22.677Z,971.12
2023-03-28T23:46:22.594Z,971.14
2023-03-28T23:47:22.776Z,971.13
2023-03-28T23:48:22.538Z,971.05
2023-03-28T23:49:22.712Z,971.04
2023-03-28T23:50:22.512Z,971.02
2023-03-28T23:51:22.720Z,970.95
2023-03-28T23:52:22.506Z,970.93
2023-03-28T23:53:22.702Z,970.90
2023-03-28T23:54:22.502Z,970.90
2023-03-28T23:55:22.643Z,970.95
2023-03-28T23:56:22.435Z,970.90
2023-03-28T23:57:22.703Z,970.86
2023-03-28T23:58:22.412Z,970.81
2023-03-28T23:59:22.689Z,970.82
